TimeEST,TemperatureF,Dew PointF,Humidity,Sea Level PressureIn,VisibilityMPH,Wind Direction,Wind SpeedMPH,Gust SpeedMPH,PrecipitationIn,Events,Conditions,WindDirDegrees,DateUTC
12:51 AM,21.9,17.1,82,30.24,10.0,SW,6.9,-,N/A,,Clear,220,2012-02-09 05:51:00
1:51 AM,21.0,17.1,85,30.25,10.0,SW,5.8,-,N/A,,Clear,220,2012-02-09 06:51:00
2:51 AM,21.0,17.1,85,30.24,10.0,SSW,6.9,-,N/A,,Clear,210,2012-02-09 07:51:00
3:51 AM,19.9,16.0,85,30.23,10.0,SW,5.8,-,N/A,,Clear,220,2012-02-09 08:51:00
4:51 AM,19.9,16.0,85,30.24,10.0,SW,6.9,-,N/A,,Clear,230,2012-02-09 09:51:00
5:51 AM,19.0,16.0,88,30.25,8.0,SW,6.9,-,N/A,,Clear,230,2012-02-09 10:51:00
6:51 AM,19.9,16.0,85,30.25,8.0,SW,6.9,-,N/A,,Clear,220,2012-02-09 11:51:00
7:51 AM,19.9,17.1,89,30.27,7.0,SSW,5.8,-,N/A,,Clear,210,2012-02-09 12:51:00
8:51 AM,24.1,19.0,81,30.28,9.0,SW,8.1,-,N/A,,Clear,220,2012-02-09 13:51:00
9:51 AM,27.0,21.0,78,30.28,10.0,WSW,9.2,-,N/A,,Clear,250,2012-02-09 14:51:00
10:51 AM,30.9,21.0,67,30.27,10.0,SW,9.2,-,N/A,,Partly Cloudy,230,2012-02-09 15:51:00
11:51 AM,33.1,21.0,61,30.26,10.0,WSW,8.1,-,N/A,,Partly Cloudy,250,2012-02-09 16:51:00
12:51 PM,35.1,21.0,57,30.23,10.0,SW,16.1,21.9,N/A,,Partly Cloudy,220,2012-02-09 17:51:00
1:51 PM,36.0,17.1,46,30.22,10.0,SW,12.7,24.2,N/A,,Partly Cloudy,220,2012-02-09 18:51:00
2:51 PM,37.0,18.0,46,30.20,10.0,SW,12.7,19.6,N/A,,Clear,220,2012-02-09 19:51:00
3:51 PM,37.4,19.4,48,30.16,10.0,SW,15.0,21.9,N/A,,Partly Cloudy,230,2012-02-09 20:51:00
4:51 PM,35.1,19.0,52,30.20,10.0,SW,11.5,18.4,N/A,,Partly Cloudy,220,2012-02-09 21:51:00
5:51 PM,32.0,19.0,59,30.19,10.0,SW,8.1,-,N/A,,Scattered Clouds,220,2012-02-09 22:51:00
6:51 PM,30.0,19.0,64,30.20,10.0,SW,12.7,-,N/A,,Partly Cloudy,230,2012-02-09 23:51:00
7:51 PM,28.9,19.0,67,30.20,10.0,SSW,10.4,-,N/A,,Scattered Clouds,210,2012-02-10 00:51:00
8:09 PM,28.4,17.6,64,30.16,10.0,SW,11.5,-,N/A,,Mostly Cloudy,220,2012-02-10 01:09:00
8:51 PM,28.0,18.0,66,30.20,10.0,SSW,8.1,-,N/A,,Scattered Clouds,210,2012-02-10 01:51:00
9:51 PM,27.0,17.1,66,30.20,10.0,SSW,4.6,-,N/A,,Scattered Clouds,210,2012-02-10 02:51:00
10:51 PM,25.0,17.1,72,30.19,10.0,South,5.8,-,N/A,,Scattered Clouds,180,2012-02-10 03:51:00
11:51 PM,25.0,17.1,72,30.18,10.0,South,5.8,-,N/A,,Scattered Clouds,190,2012-02-10 04:51:00